Time;durP1;ratioP1;P1;durP2;ratioP2;P2;SDS_P1;SDS_P2;PMS_P1;PMS_P2;Temp;Humidity;BMP_temperature;BMP_pressure;BME280_temperature;BME280_humidity;BME280_pressure;Samples;Min_cycle;Max_cycle;Signal;HPM_P1;HPM_P2
2021/07/22 00:00:08;;;;;;;1.58;1.48;;;23.10;44.20;;;;;;5088571;28;20260;-80
2021/07/22 00:02:38;;;;;;;1.60;1.50;;;23.10;44.20;;;;;;5089101;28;20631;-81
2021/07/22 00:05:09;;;;;;;1.50;1.40;;;23.10;44.20;;;;;;5088269;28;20208;-80
2021/07/22 00:07:37;;;;;;;1.83;1.73;;;23.10;44.20;;;;;;5072132;28;20177;-81
2021/07/22 00:10:07;;;;;;;1.40;1.30;;;23.00;44.20;;;;;;5088408;28;20237;-81
2021/07/22 00:12:36;;;;;;;1.58;1.48;;;23.00;44.10;;;;;;5071610;28;20193;-81
2021/07/22 00:15:03;;;;;;;1.63;1.52;;;23.10;44.20;;;;;;5071294;28;20177;-81
2021/07/22 00:17:30;;;;;;;1.63;1.52;;;23.10;44.20;;;;;;5089497;28;20165;-81
2021/07/22 00:19:56;;;;;;;1.60;1.50;;;23.00;44.20;;;;;;5088520;28;20173;-81
2021/07/22 00:22:28;;;;;;;1.30;1.20;;;23.10;44.20;;;;;;5072175;28;20176;-81
2021/07/22 00:24:54;;;;;;;1.52;1.42;;;23.10;44.20;;;;;;5087914;28;20187;-81
2021/07/22 00:27:20;;;;;;;1.50;1.40;;;23.10;44.20;;;;;;5072208;28;20221;-80
2021/07/22 00:29:50;;;;;;;1.60;1.50;;;23.10;44.20;;;;;;5087950;28;20164;-81
2021/07/22 00:32:22;;;;;;;1.85;1.65;;;23.10;44.20;;;;;;5070609;28;20216;-81
2021/07/22 00:34:53;;;;;;;1.30;1.20;;;23.10;44.20;;;;;;5087497;28;20714;-81
2021/07/22 00:37:19;;;;;;;1.50;1.40;;;23.20;44.30;;;;;;5071003;28;20187;-81
2021/07/22 00:39:50;;;;;;;1.67;1.58;;;23.00;44.20;;;;;;5105843;28;20181;-81
2021/07/22 00:42:16;;;;;;;1.40;1.30;;;23.10;44.20;;;;;;5054939;28;20196;-80
2021/07/22 00:44:42;;;;;;;2.13;1.50;;;23.10;44.20;;;;;;5087788;28;20166;-81
2021/07/22 00:47:08;;;;;;;1.45;1.33;;;23.10;44.20;;;;;;5071613;28;20164;-81
2021/07/22 00:49:39;;;;;;;1.40;1.30;;;23.00;44.20;;;;;;5104766;28;20149;-81
2021/07/22 00:52:05;;;;;;;1.63;1.52;;;23.10;44.20;;;;;;5070901;28;20276;-81
2021/07/22 00:54:31;;;;;;;1.42;1.33;;;23.10;44.20;;;;;;5105590;28;20157;-80
2021/07/22 00:56:57;;;;;;;1.55;1.45;;;23.10;44.30;;;;;;5071133;28;20233;-80
2021/07/22 00:59:28;;;;;;;2.35;1.45;;;23.00;44.20;;;;;;5104562;28;20627;-81
2021/07/22 01:01:58;;;;;;;1.40;1.30;;;23.10;44.30;;;;;;5086909;28;20224;-80
2021/07/22 01:04:30;;;;;;;1.35;1.25;;;23.10;44.30;;;;;;5053441;28;20183;-81
2021/07/22 01:07:10;;;;;;;1.92;1.40;;;23.00;44.30;;;;;;5086777;28;20181;-81
2021/07/22 01:09:40;;;;;;;1.58;1.48;;;23.10;44.40;;;;;;5086850;28;20154;-80
2021/07/22 01:12:10;;;;;;;1.60;1.50;;;23.00;44.30;;;;;;5086899;28;20220;-81
2021/07/22 01:14:36;;;;;;;1.85;1.70;;;23.10;44.40;;;;;;5070252;28;20185;-81
2021/07/22 01:17:03;;;;;;;1.50;1.40;;;23.00;44.30;;;;;;5087406;28;20235;-81
2021/07/22 01:19:33;;;;;;;1.50;1.35;;;23.00;44.30;;;;;;5088195;28;20154;-81
2021/07/22 01:22:03;;;;;;;1.60;1.50;;;23.10;44.40;;;;;;5070131;28;20216;-81
2021/07/22 01:24:29;;;;;;;1.58;1.48;;;23.00;44.40;;;;;;5087042;28;20181;-81
2021/07/22 01:27:02;;;;;;;1.70;1.60;;;23.00;44.40;;;;;;5105057;28;20161;-81
2021/07/22 01:29:34;;;;;;;1.48;1.38;;;23.00;44.40;;;;;;5069759;28;20173;-80
2021/07/22 01:32:08;;;;;;;1.65;1.50;;;23.10;44.50;;;;;;5070439;28;20255;-79
2021/07/22 01:34:37;;;;;;;1.60;1.50;;;23.00;44.50;;;;;;5069902;28;20184;-79
2021/07/22 01:37:07;;;;;;;1.58;1.40;;;23.10;44.50;;;;;;5069934;28;20177;-80
2021/07/22 01:39:39;;;;;;;1.30;1.20;;;23.00;44.50;;;;;;5086812;28;20181;-80
2021/07/22 01:42:09;;;;;;;1.40;1.30;;;23.00;44.50;;;;;;5086118;28;20188;-80
2021/07/22 01:44:35;;;;;;;1.55;1.45;;;23.00;44.80;;;;;;5053052;28;20177;-80
2021/07/22 01:47:06;;;;;;;2.03;1.48;;;23.10;44.60;;;;;;5087775;28;20203;-80
2021/07/22 01:49:32;;;;;;;1.52;1.40;;;23.10;44.60;;;;;;5069886;28;20236;-80
2021/07/22 01:52:00;;;;;;;1.52;1.42;;;23.00;44.60;;;;;;5086265;28;20197;-80
2021/07/22 01:54:28;;;;;;;1.70;1.60;;;23.00;44.60;;;;;;5086566;28;20241;-80
2021/07/22 01:57:00;;;;;;;1.60;1.50;;;23.00;44.60;;;;;;5087267;28;20187;-80
2021/07/22 01:59:29;;;;;;;1.60;1.50;;;23.10;44.60;;;;;;5070037;28;20299;-80
2021/07/22 02:02:08;;;;;;;1.70;1.50;;;23.00;44.60;;;;;;5087712;28;20243;-80
2021/07/22 02:04:38;;;;;;;1.50;1.40;;;23.00;44.60;;;;;;5070170;28;20177;-79
2021/07/22 02:07:04;;;;;;;1.35;1.25;;;23.00;44.60;;;;;;5069227;28;20184;-80
2021/07/22 02:09:37;;;;;;;1.40;1.30;;;23.00;44.60;;;;;;5086560;28;20617;-79
2021/07/22 02:12:04;;;;;;;1.40;1.27;;;23.00;44.60;;;;;;5069534;28;20220;-80
2021/07/22 02:14:36;;;;;;;1.42;1.33;;;23.10;44.60;;;;;;5086642;28;20168;-80
2021/07/22 02:17:06;;;;;;;1.58;1.45;;;23.00;44.60;;;;;;5069375;28;20185;-80
2021/07/22 02:19:35;;;;;;;1.90;1.70;;;23.00;44.60;;;;;;5068784;28;20181;-80
2021/07/22 02:22:05;;;;;;;1.55;1.45;;;23.00;44.60;;;;;;5052233;28;20189;-80
2021/07/22 02:24:38;;;;;;;1.38;1.27;;;23.00;44.60;;;;;;5085684;28;20226;-80
2021/07/22 02:27:08;;;;;;;1.58;1.30;;;23.00;44.60;;;;;;5068772;28;20181;-80
2021/07/22 02:29:39;;;;;;;1.42;1.33;;;23.00;44.60;;;;;;5086506;28;20185;-80
2021/07/22 02:32:06;;;;;;;2.30;1.65;;;23.00;45.30;;;;;;5068672;28;20208;-79
2021/07/22 02:34:38;;;;;;;1.48;1.38;;;23.00;44.60;;;;;;5086052;28;20154;-80
2021/07/22 02:37:04;;;;;;;1.63;1.52;;;23.00;44.60;;;;;;5068667;28;20582;-79
2021/07/22 02:39:31;;;;;;;1.67;1.58;;;23.00;44.70;;;;;;5085663;28;20184;-79
2021/07/22 02:41:57;;;;;;;2.10;1.50;;;23.00;44.70;;;;;;5069901;28;20184;-80
2021/07/22 02:44:23;;;;;;;1.50;1.40;;;23.00;44.70;;;;;;5086006;28;20565;-80
2021/07/22 02:46:49;;;;;;;1.60;1.50;;;23.00;44.70;;;;;;5085984;28;20165;-79
2021/07/22 02:49:16;;;;;;;1.65;1.48;;;23.10;44.80;;;;;;5086789;28;20150;-80
2021/07/22 02:51:55;;;;;;;1.48;1.38;;;23.00;45.40;;;;;;5085613;28;20192;-79
2021/07/22 02:54:21;;;;;;;1.77;1.58;;;23.00;44.70;;;;;;5087989;28;20192;-79
2021/07/22 02:56:47;;;;;;;1.20;1.10;;;23.00;44.70;;;;;;5085704;28;20173;-80
2021/07/22 02:59:19;;;;;;;1.60;1.42;;;23.00;44.70;;;;;;5086038;28;20604;-79
2021/07/22 03:01:49;;;;;;;1.27;1.17;;;22.90;44.80;;;;;;5048260;28;20253;-80
2021/07/22 03:04:23;;;;;;;1.42;1.33;;;23.00;44.70;;;;;;5064771;28;20185;-80
2021/07/22 03:06:54;;;;;;;1.45;1.33;;;23.00;44.80;;;;;;5081680;28;20201;-80
2021/07/22 03:09:24;;;;;;;1.50;1.30;;;23.00;44.80;;;;;;5064918;28;20186;-80
2021/07/22 03:11:50;;;;;;;1.38;1.27;;;23.00;44.80;;;;;;5081213;28;20213;-80
2021/07/22 03:14:21;;;;;;;1.58;1.48;;;23.00;44.80;;;;;;5082591;28;20170;-79
2021/07/22 03:16:47;;;;;;;2.42;1.30;;;23.00;44.80;;;;;;5081314;28;20269;-79
2021/07/22 03:19:17;;;;;;;1.33;1.23;;;23.00;44.90;;;;;;5066024;28;20159;-80
2021/07/22 03:21:48;;;;;;;1.65;1.55;;;22.90;44.90;;;;;;5048145;28;20185;-80
2021/07/22 03:24:14;;;;;;;1.42;1.30;;;22.90;44.90;;;;;;5063881;28;20189;-80
2021/07/22 03:26:45;;;;;;;1.55;1.40;;;22.90;44.90;;;;;;5081928;28;20176;-79
2021/07/22 03:29:16;;;;;;;1.55;1.45;;;23.00;45.00;;;;;;5048084;28;20177;-79
2021/07/22 03:31:48;;;;;;;1.30;1.20;;;23.00;44.90;;;;;;5081057;28;20271;-79
2021/07/22 03:34:18;;;;;;;1.70;1.60;;;23.00;44.90;;;;;;5064111;28;20181;-79
2021/07/22 03:36:48;;;;;;;1.38;1.27;;;23.00;45.60;;;;;;5081288;28;20652;-79
2021/07/22 03:39:19;;;;;;;1.50;1.40;;;22.90;44.90;;;;;;5064294;28;20269;-80
2021/07/22 03:41:48;;;;;;;1.73;1.38;;;23.10;44.90;;;;;;5063971;28;20193;-79
2021/07/22 03:44:19;;;;;;;1.73;1.50;;;23.00;44.90;;;;;;5065631;28;20162;-79
2021/07/22 03:46:49;;;;;;;1.40;1.30;;;23.00;44.90;;;;;;5064340;28;20178;-79
2021/07/22 03:49:20;;;;;;;1.60;1.50;;;23.00;44.90;;;;;;5081557;28;20208;-79
2021/07/22 03:51:53;;;;;;;1.42;1.33;;;23.00;44.90;;;;;;5063924;28;20348;-79
2021/07/22 03:54:22;;;;;;;1.48;1.38;;;23.10;45.00;;;;;;5064551;28;20217;-79
2021/07/22 03:56:48;;;;;;;1.70;1.60;;;22.90;44.70;;;;;;5065000;28;20170;-79
2021/07/22 03:59:15;;;;;;;1.00;1.00;;;23.00;44.80;;;;;;5065145;28;20154;-80
2021/07/22 04:01:41;;;;;;;1.50;1.33;;;23.00;44.80;;;;;;5081036;28;20221;-79
2021/07/22 04:04:11;;;;;;;1.50;1.40;;;23.00;44.80;;;;;;5085920;28;20153;-79
2021/07/22 04:06:38;;;;;;;1.30;1.20;;;23.10;44.80;;;;;;5084961;28;20199;-79
2021/07/22 04:09:08;;;;;;;1.40;1.30;;;23.10;44.70;;;;;;5085218;28;20519;-79
2021/07/22 04:11:37;;;;;;;1.55;1.45;;;23.10;44.70;;;;;;5084816;28;20208;-80
2021/07/22 04:14:07;;;;;;;1.38;1.27;;;23.10;44.70;;;;;;5085190;28;20169;-79
2021/07/22 04:16:38;;;;;;;1.30;1.20;;;23.10;44.70;;;;;;5084019;28;20260;-80
2021/07/22 04:19:04;;;;;;;2.00;1.40;;;23.10;45.70;;;;;;5066706;28;20181;-79
2021/07/22 04:21:32;;;;;;;1.60;1.50;;;23.00;46.00;;;;;;5068172;28;20165;-79
2021/07/22 04:23:59;;;;;;;1.50;1.40;;;23.00;45.80;;;;;;5101808;28;20176;-79
2021/07/22 04:26:24;;;;;;;1.50;1.35;;;23.00;45.90;;;;;;5084425;28;20161;-80
2021/07/22 04:28:52;;;;;;;1.70;1.60;;;23.10;45.70;;;;;;5101382;28;20183;-79
2021/07/22 04:31:18;;;;;;;1.73;1.63;;;23.20;45.70;;;;;;5101304;28;20201;-79
2021/07/22 04:33:45;;;;;;;1.38;1.27;;;23.20;45.50;;;;;;5105014;28;20158;-80
2021/07/22 04:36:11;;;;;;;1.70;1.60;;;23.30;45.60;;;;;;5088589;28;20212;-79
2021/07/22 04:38:37;;;;;;;1.45;1.35;;;23.30;45.50;;;;;;5104085;28;20157;-81
2021/07/22 04:41:04;;;;;;;1.33;1.23;;;23.30;45.50;;;;;;5087254;28;20188;-80
2021/07/22 04:43:34;;;;;;;1.60;1.50;;;23.30;45.40;;;;;;5087702;28;20228;-79
2021/07/22 04:46:05;;;;;;;1.35;1.25;;;23.30;45.50;;;;;;5086664;28;20181;-80
2021/07/22 04:48:36;;;;;;;1.38;1.27;;;23.30;45.30;;;;;;5052655;28;20184;-79
2021/07/22 04:51:05;;;;;;;1.30;1.20;;;23.30;45.60;;;;;;5069824;28;20205;-79
2021/07/22 04:53:31;;;;;;;1.40;1.30;;;23.30;45.50;;;;;;5088853;28;20237;-79
2021/07/22 04:55:57;;;;;;;1.40;1.30;;;23.30;45.70;;;;;;5104900;28;20227;-79
2021/07/22 04:58:23;;;;;;;1.30;1.20;;;23.30;45.50;;;;;;5104080;28;20158;-80
2021/07/22 05:00:49;;;;;;;1.50;1.40;;;23.30;45.60;;;;;;5086736;28;20238;-79
2021/07/22 05:03:19;;;;;;;1.50;1.40;;;23.30;45.30;;;;;;5070763;28;20170;-79
2021/07/22 05:05:53;;;;;;;1.48;1.38;;;23.40;45.30;;;;;;5086039;28;20506;-79
2021/07/22 05:08:18;;;;;;;1.42;1.33;;;23.40;45.20;;;;;;5069646;28;20208;-80
2021/07/22 05:10:44;;;;;;;1.40;1.30;;;23.50;45.70;;;;;;5088041;28;20158;-80
2021/07/22 05:13:12;;;;;;;1.35;1.25;;;23.50;45.40;;;;;;5087043;28;20158;-80
2021/07/22 05:15:38;;;;;;;1.38;1.27;;;23.50;45.30;;;;;;5086459;28;20176;-79
2021/07/22 05:18:04;;;;;;;1.60;1.50;;;23.50;45.50;;;;;;5087011;28;20157;-80
2021/07/22 05:20:30;;;;;;;1.75;1.63;;;23.60;45.40;;;;;;5086315;28;20157;-79
2021/07/22 05:23:02;;;;;;;1.50;1.40;;;23.50;45.20;;;;;;5086485;28;20165;-80
2021/07/22 05:25:28;;;;;;;1.45;1.35;;;23.50;45.20;;;;;;5052197;28;20212;-80
2021/07/22 05:28:04;;;;;;;1.60;1.50;;;23.40;45.50;;;;;;5086123;28;20228;-80
2021/07/22 05:30:39;;;;;;;1.45;1.35;;;23.50;45.30;;;;;;5085731;28;20188;-79
2021/07/22 05:33:07;;;;;;;1.33;1.23;;;23.50;45.40;;;;;;5085950;28;20196;-79
2021/07/22 05:35:33;;;;;;;1.40;1.30;;;23.50;45.50;;;;;;5087392;28;20161;-79
2021/07/22 05:37:59;;;;;;;1.40;1.30;;;23.60;45.50;;;;;;5087392;28;20177;-79
2021/07/22 05:40:37;;;;;;;1.40;1.30;;;23.60;45.40;;;;;;5086451;28;20158;-79
2021/07/22 05:43:03;;;;;;;1.40;1.30;;;23.50;45.10;;;;;;5085824;28;20244;-79
2021/07/22 05:45:29;;;;;;;1.30;1.20;;;23.50;45.40;;;;;;5086473;28;20162;-79
2021/07/22 05:47:58;;;;;;;2.28;1.30;;;23.60;45.50;;;;;;5087141;28;20160;-79
2021/07/22 05:50:31;;;;;;;1.40;1.30;;;23.60;45.20;;;;;;5069806;28;20569;-79
2021/07/22 05:53:01;;;;;;;1.40;1.30;;;23.60;45.30;;;;;;5069661;28;20589;-79
2021/07/22 05:55:28;;;;;;;1.48;1.20;;;23.70;45.40;;;;;;5086457;28;20182;-79
2021/07/22 05:57:58;;;;;;;1.98;1.30;;;23.70;45.40;;;;;;5087298;28;20172;-79
2021/07/22 06:00:23;;;;;;;1.60;1.50;;;23.70;45.10;;;;;;5069828;28;20228;-79
2021/07/22 06:02:53;;;;;;;1.30;1.20;;;23.70;45.60;;;;;;5085834;28;20145;-79
2021/07/22 06:05:23;;;;;;;1.40;1.20;;;23.60;45.40;;;;;;5069710;28;20174;-79
2021/07/22 06:07:56;;;;;;;1.52;1.42;;;23.70;45.30;;;;;;5052466;28;20174;-79
2021/07/22 06:10:27;;;;;;;1.42;1.33;;;23.70;45.60;;;;;;5069538;28;20185;-79
2021/07/22 06:12:54;;;;;;;1.30;1.20;;;23.70;45.50;;;;;;5069069;28;20618;-79
2021/07/22 06:15:20;;;;;;;1.45;1.35;;;23.70;45.10;;;;;;5069646;28;20168;-79
2021/07/22 06:17:46;;;;;;;1.45;1.35;;;23.70;45.30;;;;;;5086323;28;20160;-79
2021/07/22 06:20:19;;;;;;;1.50;1.40;;;23.70;45.30;;;;;;5086736;28;20244;-79
2021/07/22 06:22:45;;;;;;;1.33;1.23;;;23.80;45.50;;;;;;5069590;28;20196;-79
2021/07/22 06:25:17;;;;;;;1.50;1.40;;;23.70;45.00;;;;;;5086146;28;20359;-79
2021/07/22 06:27:44;;;;;;;1.70;1.50;;;23.80;45.70;;;;;;5052362;28;20633;-79
2021/07/22 06:30:15;;;;;;;2.13;1.35;;;23.70;45.10;;;;;;5086346;28;20164;-79
2021/07/22 06:32:51;;;;;;;1.27;1.17;;;23.80;45.50;;;;;;5085131;28;20231;-79
2021/07/22 06:35:17;;;;;;;1.60;1.50;;;23.80;45.50;;;;;;5085482;28;20181;-79
2021/07/22 06:37:47;;;;;;;1.52;1.42;;;23.80;45.70;;;;;;5069424;28;20165;-79
2021/07/22 06:40:13;;;;;;;1.70;1.40;;;23.80;45.40;;;;;;5102432;28;20192;-79
2021/07/22 06:42:44;;;;;;;1.52;1.42;;;23.80;45.70;;;;;;5086251;28;20164;-79
2021/07/22 06:45:14;;;;;;;1.42;1.23;;;23.80;45.60;;;;;;5051540;28;20177;-78
2021/07/22 06:47:43;;;;;;;1.40;1.30;;;23.80;45.50;;;;;;5068096;28;20184;-79
2021/07/22 06:50:13;;;;;;;1.45;1.35;;;23.70;45.40;;;;;;5068549;28;20539;-79
2021/07/22 06:52:39;;;;;;;1.35;1.25;;;23.80;45.30;;;;;;5068364;28;20217;-79
2021/07/22 06:55:09;;;;;;;1.45;1.35;;;23.70;46.00;;;;;;5085586;28;20175;-78
2021/07/22 06:57:38;;;;;;;1.50;1.40;;;23.70;45.20;;;;;;5086778;28;20154;-79
2021/07/22 07:00:05;;;;;;;1.58;1.48;;;23.80;45.70;;;;;;5085102;28;20208;-78
2021/07/22 07:02:31;;;;;;;1.35;1.25;;;23.70;45.50;;;;;;5084837;28;20157;-78
2021/07/22 07:04:57;;;;;;;1.33;1.23;;;23.70;45.90;;;;;;5085322;28;20165;-79
2021/07/22 07:07:23;;;;;;;1.60;1.50;;;23.70;45.60;;;;;;5067714;28;20191;-80
2021/07/22 07:09:49;;;;;;;1.60;1.50;;;23.70;45.60;;;;;;5100281;28;20169;-79
2021/07/22 07:12:19;;;;;;;1.38;1.27;;;23.80;45.70;;;;;;5084515;28;20197;-79
2021/07/22 07:14:49;;;;;;;1.38;1.27;;;23.80;45.50;;;;;;5083772;28;20545;-79
2021/07/22 07:17:24;;;;;;;1.55;1.40;;;23.80;45.70;;;;;;5067714;28;20189;-79
2021/07/22 07:19:50;;;;;;;1.70;1.60;;;23.80;45.60;;;;;;5083498;28;20188;-79
2021/07/22 07:22:20;;;;;;;1.50;1.40;;;23.80;45.70;;;;;;5084733;28;20455;-80
2021/07/22 07:24:51;;;;;;;1.40;1.30;;;23.80;45.30;;;;;;5084256;28;20203;-79
2021/07/22 07:27:17;;;;;;;1.60;1.50;;;23.80;45.50;;;;;;5083821;28;20663;-79
2021/07/22 07:29:54;;;;;;;1.40;1.30;;;23.80;45.50;;;;;;5100964;28;20165;-79
2021/07/22 07:32:22;;;;;;;1.52;1.42;;;23.70;45.80;;;;;;5066489;28;20213;-79
2021/07/22 07:34:52;;;;;;;1.58;1.48;;;23.80;45.70;;;;;;5084226;28;20598;-79
2021/07/22 07:37:22;;;;;;;1.35;1.25;;;23.80;45.60;;;;;;5049182;28;20210;-79
2021/07/22 07:39:50;;;;;;;1.50;1.40;;;23.80;45.70;;;;;;5066648;28;20173;-79
2021/07/22 07:42:20;;;;;;;1.50;1.30;;;23.80;45.70;;;;;;5083592;28;20168;-80
2021/07/22 07:44:52;;;;;;;1.40;1.30;;;23.80;45.70;;;;;;5082601;28;20181;-80
2021/07/22 07:47:24;;;;;;;1.40;1.30;;;23.80;45.90;;;;;;5082173;28;20185;-79
2021/07/22 07:49:54;;;;;;;2.60;1.40;;;23.90;45.60;;;;;;5081733;28;20184;-80
2021/07/22 07:52:20;;;;;;;1.40;1.30;;;23.90;45.50;;;;;;5082629;28;20242;-79
2021/07/22 07:54:50;;;;;;;1.77;1.67;;;23.90;45.50;;;;;;5083034;28;20180;-80
2021/07/22 07:57:16;;;;;;;1.20;1.10;;;23.90;45.60;;;;;;5083294;28;20709;-80
2021/07/22 07:59:46;;;;;;;1.85;1.48;;;23.90;45.60;;;;;;5066354;28;20161;-79
2021/07/22 08:02:14;;;;;;;1.30;1.20;;;23.90;45.70;;;;;;5041333;28;1224415;-80
2021/07/22 08:04:46;;;;;;;1.48;1.20;;;24.00;45.60;;;;;;5100103;28;20184;-82
2021/07/22 08:07:12;;;;;;;1.30;1.20;;;23.90;45.40;;;;;;5049602;28;20720;-80
2021/07/22 08:09:46;;;;;;;1.73;1.30;;;23.90;45.40;;;;;;5087191;28;20520;-80
2021/07/22 08:12:18;;;;;;;1.40;1.30;;;24.00;45.40;;;;;;5070787;28;20719;-79
2021/07/22 08:14:45;;;;;;;1.40;1.30;;;23.90;45.50;;;;;;5070260;28;20177;-80
2021/07/22 08:17:21;;;;;;;1.40;1.30;;;24.00;45.40;;;;;;5104991;28;20176;-79
2021/07/22 08:19:46;;;;;;;1.38;1.27;;;23.90;45.40;;;;;;5054582;28;20192;-79
2021/07/22 08:22:17;;;;;;;1.60;1.50;;;23.90;45.60;;;;;;5087918;28;20191;-79
2021/07/22 08:24:44;;;;;;;1.35;1.25;;;23.90;45.60;;;;;;5070595;28;20182;-79
2021/07/22 08:27:12;;;;;;;1.50;1.40;;;23.90;45.60;;;;;;5071796;28;20177;-80
2021/07/22 08:29:39;;;;;;;1.70;1.58;;;23.80;45.60;;;;;;5087938;28;20199;-79
2021/07/22 08:32:05;;;;;;;1.50;1.38;;;23.80;45.80;;;;;;5087677;28;20193;-79
2021/07/22 08:34:31;;;;;;;1.45;1.35;;;23.90;45.60;;;;;;5087576;28;20162;-80
2021/07/22 08:37:09;;;;;;;1.42;1.33;;;23.90;45.60;;;;;;5086976;28;20162;-78
2021/07/22 08:39:44;;;;;;;1.60;1.50;;;24.00;45.80;;;;;;5087088;28;20180;-80
2021/07/22 08:42:16;;;;;;;1.50;1.40;;;23.90;45.70;;;;;;5086440;28;20222;-79
2021/07/22 08:44:45;;;;;;;1.38;1.27;;;23.90;45.70;;;;;;5086896;28;20185;-79
2021/07/22 08:47:16;;;;;;;1.40;1.30;;;23.90;45.70;;;;;;5085912;28;20184;-79
2021/07/22 08:49:42;;;;;;;1.35;1.20;;;23.90;45.50;;;;;;5052545;28;20188;-79
2021/07/22 08:52:15;;;;;;;2.30;1.58;;;24.00;46.50;;;;;;5087224;28;20267;-79
2021/07/22 08:54:45;;;;;;;1.52;1.40;;;23.90;45.70;;;;;;5053080;28;20249;-80
2021/07/22 08:57:12;;;;;;;1.42;1.33;;;23.90;45.70;;;;;;5086334;28;20177;-79
2021/07/22 08:59:45;;;;;;;1.40;1.30;;;23.90;45.80;;;;;;5071121;28;20228;-79
2021/07/22 09:02:20;;;;;;;1.50;1.40;;;23.90;45.70;;;;;;5053166;28;20213;-79
2021/07/22 09:04:56;;;;;;;1.30;1.20;;;23.90;45.70;;;;;;5070671;28;20181;-79
2021/07/22 09:07:23;;;;;;;1.40;1.30;;;23.90;45.90;;;;;;5053670;28;20211;-79
2021/07/22 09:10:09;;;;;;;1.60;1.50;;;23.90;45.70;;;;;;5071050;28;20172;-78
2021/07/22 09:12:37;;;;;;;1.42;1.33;;;23.90;45.70;;;;;;5088457;28;20597;-79
2021/07/22 09:15:10;;;;;;;1.40;1.30;;;23.90;46.00;;;;;;5070784;28;20169;-80
2021/07/22 09:17:36;;;;;;;1.58;1.33;;;24.00;46.60;;;;;;5087122;28;20181;-79
2021/07/22 09:20:12;;;;;;;1.50;1.40;;;24.00;45.70;;;;;;5087356;28;20166;-79
2021/07/22 09:22:40;;;;;;;1.92;1.50;;;23.90;45.70;;;;;;5087041;28;20204;-79
2021/07/22 09:25:13;;;;;;;1.75;1.45;;;23.90;45.90;;;;;;5070388;28;20158;-80
2021/07/22 09:27:44;;;;;;;1.67;1.58;;;23.90;45.80;;;;;;5053602;28;20179;-79
2021/07/22 09:30:16;;;;;;;1.70;1.60;;;23.90;45.70;;;;;;5069901;28;20188;-79
2021/07/22 09:32:45;;;;;;;1.42;1.33;;;24.00;45.70;;;;;;5086478;28;20193;-79
2021/07/22 09:35:13;;;;;;;1.40;1.30;;;24.00;45.50;;;;;;5086757;28;20515;-79
2021/07/22 09:37:48;;;;;;;1.40;1.30;;;24.10;45.50;;;;;;5086973;28;20172;-79
2021/07/22 09:40:35;;;;;;;1.60;1.50;;;24.00;45.40;;;;;;5086111;28;20177;-79
2021/07/22 09:43:02;;;;;;;1.60;1.50;;;24.00;45.30;;;;;;5071400;28;20189;-80
2021/07/22 09:45:30;;;;;;;1.63;1.52;;;23.90;45.40;;;;;;5086126;28;20165;-80
2021/07/22 09:48:10;;;;;;;1.70;1.50;;;23.90;45.60;;;;;;5086454;28;20158;-79
2021/07/22 09:50:42;;;;;;;2.97;1.77;;;23.90;45.70;;;;;;5086005;28;20240;-79
2021/07/22 09:53:15;;;;;;;2.40;1.30;;;23.90;45.70;;;;;;5068962;28;20213;-79
2021/07/22 09:55:46;;;;;;;1.48;1.38;;;23.80;45.90;;;;;;5068753;28;20173;-79
2021/07/22 09:58:13;;;;;;;1.67;1.58;;;23.80;46.00;;;;;;5068963;28;20189;-79
2021/07/22 10:00:40;;;;;;;1.38;1.27;;;23.80;46.10;;;;;;5085290;28;20248;-79
2021/07/22 10:03:08;;;;;;;1.60;1.50;;;23.90;46.00;;;;;;5103333;28;20177;-79
2021/07/22 10:05:42;;;;;;;1.70;1.42;;;23.90;45.80;;;;;;5103678;28;20177;-79
2021/07/22 10:08:19;;;;;;;2.30;1.63;;;23.90;45.80;;;;;;5085375;28;20189;-79
2021/07/22 10:10:51;;;;;;;1.75;1.65;;;24.00;45.80;;;;;;5069925;28;20551;-79
2021/07/22 10:13:28;;;;;;;1.63;1.52;;;23.90;45.90;;;;;;5070280;28;20254;-80
2021/07/22 10:15:56;;;;;;;1.75;1.65;;;23.90;46.00;;;;;;5068730;28;20181;-79
2021/07/22 10:18:27;;;;;;;1.80;1.60;;;24.00;46.00;;;;;;5087088;28;20145;-79
2021/07/22 10:20:59;;;;;;;2.13;1.60;;;24.00;45.80;;;;;;5068667;28;20181;-79
2021/07/22 10:23:33;;;;;;;3.60;1.90;;;24.00;45.80;;;;;;5052933;28;20189;-79
2021/07/22 10:26:13;;;;;;;1.60;1.50;;;24.00;45.70;;;;;;5085321;28;20185;-79
2021/07/22 10:28:39;;;;;;;1.63;1.52;;;24.10;45.70;;;;;;5068589;28;20181;-79
2021/07/22 10:31:05;;;;;;;1.55;1.42;;;24.10;45.70;;;;;;5068867;28;20173;-79
2021/07/22 10:33:37;;;;;;;2.00;1.63;;;24.20;45.50;;;;;;5086523;28;20189;-79
2021/07/22 10:36:06;;;;;;;1.42;1.33;;;24.00;45.60;;;;;;5068536;28;20187;-79
2021/07/22 10:38:45;;;;;;;1.77;1.60;;;24.10;45.50;;;;;;5085556;28;20192;-79
2021/07/22 10:41:36;;;;;;;1.50;1.40;;;24.20;45.50;;;;;;5085655;28;20184;-79
2021/07/22 10:44:04;;;;;;;1.55;1.45;;;24.10;45.40;;;;;;5069873;28;20162;-79
2021/07/22 10:46:51;;;;;;;1.58;1.48;;;24.00;45.60;;;;;;5102494;28;20184;-79
2021/07/22 10:49:17;;;;;;;1.50;1.40;;;24.10;45.50;;;;;;5085363;28;20230;-79
2021/07/22 10:51:45;;;;;;;1.50;1.40;;;24.10;45.60;;;;;;5102276;28;20193;-79
2021/07/22 10:54:44;;;;;;;2.08;1.88;;;24.00;45.70;;;;;;5085929;28;20629;-79
2021/07/22 10:57:37;;;;;;;1.60;1.50;;;24.00;45.70;;;;;;5085197;28;20233;-79
2021/07/22 11:00:08;;;;;;;1.65;1.55;;;24.00;45.70;;;;;;5085845;28;20154;-79
2021/07/22 11:02:53;;;;;;;1.63;1.52;;;24.00;45.70;;;;;;5102851;28;20185;-79
2021/07/22 11:05:58;;;;;;;1.30;1.20;;;24.10;45.60;;;;;;5068006;28;20582;-79
2021/07/22 11:08:25;;;;;;;1.48;1.38;;;24.10;45.70;;;;;;5086076;28;20169;-79
2021/07/22 11:11:02;;;;;;;1.48;1.38;;;24.10;45.50;;;;;;5085335;28;20157;-79
2021/07/22 11:13:50;;;;;;;1.60;1.50;;;24.10;45.50;;;;;;5085325;28;20159;-79
2021/07/22 11:16:25;;;;;;;1.67;1.58;;;24.00;45.60;;;;;;5050652;28;20178;-79
2021/07/22 11:18:59;;;;;;;1.65;1.55;;;24.00;45.50;;;;;;5032502;28;20203;-79
2021/07/22 11:21:36;;;;;;;1.70;1.60;;;24.10;45.70;;;;;;5048400;28;20181;-79
2021/07/22 11:26:49;;;;;;;1.63;1.52;;;24.20;45.50;;;;;;5034236;28;20181;-79
2021/07/22 11:29:16;;;;;;;1.80;1.30;;;24.10;45.50;;;;;;5048358;28;20182;-79
2021/07/22 11:31:49;;;;;;;2.67;1.67;;;24.10;45.50;;;;;;5047842;28;20198;-79
2021/07/22 11:34:24;;;;;;;1.80;1.70;;;24.10;45.50;;;;;;5031760;28;20217;-79
2021/07/22 11:36:57;;;;;;;1.92;1.60;;;24.10;45.50;;;;;;5048550;28;20165;-79
2021/07/22 11:39:44;;;;;;;1.67;1.58;;;24.10;45.50;;;;;;5048281;28;20174;-79
2021/07/22 11:42:11;;;;;;;1.52;1.42;;;24.10;45.50;;;;;;5046510;28;20161;-79
2021/07/22 11:44:42;;;;;;;3.63;1.50;;;24.10;45.60;;;;;;5047701;28;20162;-79
2021/07/22 11:47:13;;;;;;;1.73;1.63;;;24.10;45.60;;;;;;5030374;28;20181;-79
2021/07/22 11:49:40;;;;;;;3.45;1.70;;;24.10;45.60;;;;;;4998852;28;20182;-79
2021/07/22 11:52:09;;;;;;;2.00;1.70;;;24.20;46.60;;;;;;5047386;28;20277;-79
2021/07/22 11:54:35;;;;;;;1.70;1.60;;;24.20;46.00;;;;;;5065063;28;20184;-79
2021/07/22 11:57:07;;;;;;;1.95;1.77;;;24.20;46.10;;;;;;5068405;28;20177;-79
2021/07/22 11:59:37;;;;;;;1.80;1.70;;;24.20;45.90;;;;;;5084052;28;20181;-79
2021/07/22 12:02:09;;;;;;;1.70;1.60;;;24.20;46.10;;;;;;5067027;28;20288;-79
2021/07/22 12:04:35;;;;;;;2.08;1.88;;;24.20;46.30;;;;;;5051189;28;20249;-79
2021/07/22 12:07:07;;;;;;;1.70;1.60;;;24.30;46.40;;;;;;5101456;28;20161;-79
2021/07/22 12:09:56;;;;;;;1.67;1.45;;;24.30;45.80;;;;;;5068014;28;20181;-79
2021/07/22 12:12:26;;;;;;;1.92;1.60;;;24.30;46.20;;;;;;5085630;28;20220;-79
2021/07/22 12:15:07;;;;;;;1.98;1.77;;;24.30;46.40;;;;;;5067547;28;20270;-79
2021/07/22 12:17:34;;;;;;;2.25;2.05;;;24.20;46.00;;;;;;5083847;28;20178;-79
2021/07/22 12:20:04;;;;;;;1.80;1.70;;;24.30;46.10;;;;;;5085027;28;20150;-79
2021/07/22 12:22:38;;;;;;;1.90;1.75;;;24.30;46.00;;;;;;5084448;28;20277;-79
2021/07/22 12:25:16;;;;;;;1.75;1.65;;;24.30;45.80;;;;;;5068318;28;20214;-79
2021/07/22 12:27:56;;;;;;;1.80;1.70;;;24.30;46.00;;;;;;5102747;28;20181;-79
2021/07/22 12:30:31;;;;;;;2.05;1.90;;;24.30;45.80;;;;;;5067349;28;20185;-79
2021/07/22 12:33:03;;;;;;;2.10;1.70;;;24.30;45.80;;;;;;5067303;28;20220;-79
2021/07/22 12:35:40;;;;;;;1.73;1.63;;;24.30;45.90;;;;;;5067405;28;20185;-80
2021/07/22 12:38:25;;;;;;;1.73;1.60;;;24.20;45.90;;;;;;5067488;28;20628;-79
2021/07/22 12:41:07;;;;;;;2.10;1.90;;;24.30;45.90;;;;;;5067850;28;20173;-79
2021/07/22 12:43:48;;;;;;;1.70;1.60;;;24.30;45.90;;;;;;5067806;28;20185;-79
2021/07/22 12:46:22;;;;;;;2.20;2.00;;;24.20;45.80;;;;;;5101516;28;20238;-79
2021/07/22 12:48:52;;;;;;;1.77;1.67;;;24.30;46.10;;;;;;5067445;28;20255;-79
2021/07/22 12:51:19;;;;;;;1.75;1.65;;;24.20;45.90;;;;;;5050296;28;20213;-79
2021/07/22 12:53:49;;;;;;;1.90;1.80;;;24.30;46.10;;;;;;5086438;28;20154;-79
2021/07/22 12:56:16;;;;;;;2.10;1.90;;;24.30;46.70;;;;;;5070703;28;20185;-79
2021/07/22 12:58:49;;;;;;;1.90;1.80;;;24.30;45.70;;;;;;5088210;28;20165;-79
2021/07/22 13:01:19;;;;;;;1.92;1.80;;;24.30;46.10;;;;;;5062955;28;20215;-79
2021/07/22 13:03:46;;;;;;;1.80;1.70;;;24.30;46.00;;;;;;5048345;28;20177;-79
2021/07/22 13:06:19;;;;;;;1.67;1.58;;;24.40;45.80;;;;;;5048617;28;20151;-79